Ana Sayfa
METAR-TAF:

METAR-TAF

Havaalanları :

New Braunfels Municipal Airport

New Braunfels, Teksas, Amerika Birleşik Devletleri

Enlem: 29-42-31N, Boylam: 098-02-43W, yükseklik: 197 m

Güncel hava durumu gözlemi

Rapor saat 21:51 UTC de 15 dakika önce yapıldı.
Rüzgar kuzey/kuzeybatıdan 12 kt ve 18 kt'a kadar ani rüzgarlar
Sıcaklık 20°C
Nem 40%
Basınç 1013 hPa
Görüş mesafesi: 16.1 km
Açık gökyüzü

METAR: KBAZ 252151Z 34012G18KT 10SM CLR 20/06 A2991 RMK AO2 SLP125 T02000056

Saat: 16:06 (22:06 UTC)


TAF: eksik

4.000'den fazla havaalanı için hava durumu gözlemleri ve tahminleri (METAR ve TAF raporları).

Kullanılabilir istasyonlar harita üzerinde sarı ve kırmızı noktalarla gösterilir.

İstasyonun adını görmek için fareyi noktanın üzerinde gezdirin.

Sonrasında hava gözlem ve tahminlerini görmek için tıklayın.

Haritayı değiştirmek için: yaklaştırmak için siyah artı işaretli yeşil düğmeye ve uzaklaştırmak için de eksi işaretli düğmeye hızla tıklayın; bitişik haritalar için yeşil okları kullanın.


METAR-TAF: